Strona główna
METAR-TAF:

METAR-TAF

Lotnisko :

Brize Norton, Anglia

Szerokość geograficzna: 51-45N, Długość geograficzna: 001-35W, wysokość: 88 m

Aktualna obserwacja pogody

Raport powstał 29 minut temu, godzina 01:20 UTC
Wiatr 3 kt od północno-północny wschód
Temperatura 1°C
Wilgotność 86%
Ciśnienie 1028 hPa
Widzialność 10 km lub więcej
Brak chmur poniżej 1500 m i brak chmur cumulonimbus

METAR: EGVN 010120Z 02003KT CAVOK 01/M01 Q1028 NOSIG RMK BLU BLU

czas: 02:49 (01:49 UTC)

Prognoza

Raport powstał 3 godziny i 28 minut temu, godzina 22:21 UTC
Prognoza ważna od 01 godzina 00 UTC do 01 godzina 24 UTC
Wiatr 8 kt od północno-północny wschód
Widzialność 10 km lub więcej
Mało chmury na wysokości 4500 ft

TAF: EGVN 312221Z 0100/0124 02008KT 9999 FEW045

Obserwacja i prognoza pogody dla ponad 4000 lotnisk (raport METAR i TAF).

Dostępne stacje oznaczono żółtymi i czerwonymi punktami na mapie.

Najedź kursorem aby zobaczyć nazwę stacji.

Kliknij aby zobaczyć obserwacje i prognozy pogody.

Aby zmienić mapę: kliknij na zielony przycisk z czarnym krzyżykiem, aby powiększyć; na zielony przycisk z myślnikiem, aby pomniejszyć; na zielone strzałki, aby przejść do map sąsiednich.


METAR-TAF: